createdAt,value
2023-05-01T00:00:47.300Z,2.25
2023-05-01T00:03:14.049Z,2.83
2023-05-01T00:05:40.651Z,2.00
2023-05-01T00:08:07.163Z,2.28
2023-05-01T00:10:36.061Z,2.30
2023-05-01T00:13:02.727Z,2.65
2023-05-01T00:15:29.790Z,2.60
2023-05-01T00:17:56.357Z,2.38
2023-05-01T00:20:26.934Z,3.17
2023-05-01T00:22:53.437Z,2.50
2023-05-01T00:25:20.008Z,2.17
2023-05-01T00:27:46.521Z,2.28
2023-05-01T00:30:13.060Z,2.60
2023-05-01T00:32:39.625Z,2.35
2023-05-01T00:35:06.385Z,2.38
2023-05-01T00:37:32.899Z,2.35
2023-05-01T00:39:59.651Z,2.45
2023-05-01T00:42:26.425Z,2.60
2023-05-01T00:44:52.966Z,2.25
2023-05-01T00:47:19.670Z,2.20
2023-05-01T00:49:47.301Z,2.80
2023-05-01T00:52:13.881Z,2.20
2023-05-01T00:54:40.538Z,2.20
2023-05-01T00:57:07.236Z,2.42
2023-05-01T00:59:33.791Z,2.35
2023-05-01T01:02:01.049Z,2.83
2023-05-01T01:04:27.698Z,2.75
2023-05-01T01:07:19.874Z,2.72
2023-05-01T01:09:55.580Z,2.75
2023-05-01T01:12:57.436Z,2.60
2023-05-01T01:15:41.848Z,2.70
2023-05-01T01:18:26.715Z,2.55
2023-05-01T01:21:00.908Z,2.80
2023-05-01T01:23:36.631Z,3.30
2023-05-01T01:26:33.798Z,2.70
2023-05-01T01:29:31.488Z,3.15
2023-05-01T01:32:19.515Z,3.40
2023-05-01T01:34:59.697Z,3.08
2023-05-01T01:37:37.481Z,3.42
2023-05-01T01:40:15.970Z,3.80
2023-05-01T01:42:49.714Z,3.30
2023-05-01T01:45:21.756Z,3.28
2023-05-01T01:47:49.833Z,2.97
2023-05-01T01:50:18.777Z,3.70
2023-05-01T01:52:49.199Z,3.50
2023-05-01T01:55:21.168Z,3.10
2023-05-01T01:57:50.263Z,3.15
2023-05-01T02:00:18.444Z,3.08
2023-05-01T02:02:46.902Z,3.70
2023-05-01T02:05:19.295Z,3.88
2023-05-01T02:07:48.306Z,3.63
2023-05-01T02:10:15.979Z,3.95
2023-05-01T02:12:44.709Z,3.83
2023-05-01T02:15:12.707Z,3.90
2023-05-01T02:17:40.825Z,3.70
2023-05-01T02:20:10.250Z,3.50
2023-05-01T02:22:38.467Z,3.88
2023-05-01T02:25:08.433Z,3.63
2023-05-01T02:27:38.075Z,3.85
2023-05-01T02:30:05.306Z,4.03
2023-05-01T02:32:32.060Z,3.80
2023-05-01T02:34:58.576Z,4.35
2023-05-01T02:37:25.269Z,3.80
2023-05-01T02:39:51.973Z,3.85
2023-05-01T02:42:21.944Z,3.58
2023-05-01T02:44:54.133Z,3.92
2023-05-01T02:47:23.154Z,4.07
2023-05-01T02:49:52.792Z,3.58
2023-05-01T02:52:20.793Z,3.60
2023-05-01T02:54:48.135Z,3.33
2023-05-01T02:57:17.979Z,3.53
2023-05-01T03:02:11.032Z,3.85
2023-05-01T03:04:37.736Z,3.83
2023-05-01T03:07:04.424Z,3.63
2023-05-01T03:09:32.779Z,3.47
2023-05-01T03:11:59.480Z,3.58
2023-05-01T03:14:26.145Z,3.60
2023-05-01T03:16:53.924Z,3.45
2023-05-01T03:19:21.332Z,4.05
2023-05-01T03:21:48.368Z,3.50
2023-05-01T03:24:14.883Z,3.13
2023-05-01T03:26:41.381Z,3.17
2023-05-01T03:29:07.910Z,3.78
2023-05-01T03:31:34.451Z,3.20
2023-05-01T03:34:00.969Z,3.30
2023-05-01T03:36:27.549Z,3.40
2023-05-01T03:38:54.030Z,3.05
2023-05-01T03:41:20.527Z,3.63
2023-05-01T03:43:47.036Z,3.95
2023-05-01T03:46:13.553Z,3.35
2023-05-01T03:48:40.067Z,3.50
2023-05-01T03:51:06.609Z,3.47
2023-05-01T03:53:33.119Z,3.90
2023-05-01T03:55:59.582Z,3.63
2023-05-01T03:58:26.102Z,4.00
2023-05-01T04:00:54.524Z,3.88
2023-05-01T04:03:21.112Z,3.08
2023-05-01T04:05:47.765Z,3.47
2023-05-01T04:08:14.253Z,3.63
2023-05-01T04:10:40.819Z,3.95
2023-05-01T04:13:07.301Z,4.28
2023-05-01T04:15:33.798Z,3.80
2023-05-01T04:18:00.570Z,3.85
2023-05-01T04:20:27.171Z,3.60
2023-05-01T04:22:53.660Z,3.80
2023-05-01T04:25:20.191Z,4.28
2023-05-01T04:27:46.714Z,3.72
2023-05-01T04:30:13.202Z,3.67
2023-05-01T04:32:39.688Z,3.70
2023-05-01T04:35:06.758Z,3.80
2023-05-01T04:37:33.252Z,4.22
2023-05-01T04:39:59.761Z,3.78
2023-05-01T04:42:33.019Z,4.15
2023-05-01T04:44:59.662Z,4.28
2023-05-01T04:47:26.169Z,4.40
2023-05-01T04:49:52.733Z,4.03
2023-05-01T04:52:19.327Z,4.28
2023-05-01T04:54:45.830Z,4.15
2023-05-01T04:57:12.331Z,4.10
2023-05-01T04:59:38.826Z,4.05
2023-05-01T05:02:05.432Z,4.65
2023-05-01T05:04:32.089Z,3.45
2023-05-01T05:06:58.555Z,4.18
2023-05-01T05:09:25.098Z,4.40
2023-05-01T05:11:51.625Z,4.53
2023-05-01T05:14:18.097Z,4.65
2023-05-01T05:16:44.651Z,4.63
2023-05-01T05:19:11.200Z,4.68
2023-05-01T05:21:37.676Z,4.78
2023-05-01T05:24:04.296Z,4.97
2023-05-01T05:26:30.831Z,4.47
2023-05-01T05:28:57.344Z,5.07
2023-05-01T05:31:23.929Z,5.43
2023-05-01T05:33:50.755Z,4.70
2023-05-01T05:36:17.307Z,4.72
2023-05-01T05:38:43.823Z,5.00
2023-05-01T05:41:10.390Z,4.97
2023-05-01T05:43:36.873Z,5.43
2023-05-01T05:46:03.508Z,4.75
2023-05-01T05:48:30.277Z,4.70
2023-05-01T05:50:56.781Z,5.25
2023-05-01T05:53:25.767Z,4.50
2023-05-01T05:55:52.726Z,4.97
2023-05-01T05:58:19.340Z,4.68
2023-05-01T06:00:47.789Z,4.97
2023-05-01T06:03:14.971Z,4.55
2023-05-01T06:05:42.651Z,4.80
2023-05-01T06:08:09.333Z,4.90
2023-05-01T06:10:36.320Z,4.63
2023-05-01T06:13:13.688Z,5.30
2023-05-01T06:15:41.529Z,4.38
2023-05-01T06:18:08.351Z,4.82
2023-05-01T06:20:35.013Z,4.38
2023-05-01T06:23:01.533Z,4.35
2023-05-01T06:25:28.056Z,4.05
2023-05-01T06:27:54.581Z,4.53
2023-05-01T06:30:21.175Z,4.68
2023-05-01T06:32:48.216Z,4.50
2023-05-01T06:35:14.794Z,4.78
2023-05-01T06:37:41.330Z,3.75
2023-05-01T06:40:08.920Z,4.30
2023-05-01T06:42:39.461Z,4.25
2023-05-01T06:45:07.555Z,4.43
2023-05-01T06:47:34.255Z,3.78
2023-05-01T06:50:02.832Z,4.30
2023-05-01T06:52:30.518Z,3.67
2023-05-01T06:54:57.039Z,3.95
2023-05-01T06:57:23.679Z,4.57
2023-05-01T06:59:50.202Z,4.05
2023-05-01T07:02:17.165Z,3.67
2023-05-01T07:04:44.750Z,3.75
2023-05-01T07:07:11.898Z,3.70
2023-05-01T07:09:40.671Z,3.90
2023-05-01T07:12:08.187Z,4.18
2023-05-01T07:17:43.141Z,3.60
2023-05-01T07:20:10.259Z,3.65
2023-05-01T07:22:36.948Z,3.58
2023-05-01T07:25:03.615Z,3.75
2023-05-01T07:27:32.631Z,3.92
2023-05-01T07:30:00.692Z,4.00
2023-05-01T07:32:27.440Z,4.20
2023-05-01T07:34:54.014Z,4.25
2023-05-01T07:37:20.487Z,4.15
2023-05-01T07:39:47.027Z,4.55
2023-05-01T07:42:13.528Z,4.40
2023-05-01T07:44:40.043Z,3.97
2023-05-01T07:47:06.615Z,3.83
2023-05-01T07:49:36.822Z,4.22
2023-05-01T07:52:03.443Z,4.53
2023-05-01T07:54:29.992Z,4.00
2023-05-01T07:56:56.513Z,4.70
2023-05-01T07:59:23.067Z,4.47
2023-05-01T08:01:49.673Z,3.90
2023-05-01T08:04:16.350Z,3.70
2023-05-01T08:06:43.200Z,4.05
2023-05-01T08:09:09.796Z,3.60
2023-05-01T08:11:36.270Z,4.10
2023-05-01T08:14:03.008Z,3.80
2023-05-01T08:16:29.620Z,3.28
2023-05-01T08:18:56.170Z,3.13
2023-05-01T08:21:22.703Z,2.50
2023-05-01T08:23:49.281Z,2.08
2023-05-01T08:26:15.798Z,2.20
2023-05-01T08:28:42.278Z,2.55
2023-05-01T08:31:08.836Z,2.60
2023-05-01T08:33:35.345Z,2.42
2023-05-01T08:36:01.840Z,3.25
2023-05-01T08:38:28.367Z,2.72
2023-05-01T08:40:54.889Z,3.00
2023-05-01T08:43:22.380Z,3.20
2023-05-01T08:45:50.976Z,3.08
2023-05-01T08:48:17.700Z,3.30
2023-05-01T08:50:46.696Z,3.33
2023-05-01T08:53:16.004Z,3.00
2023-05-01T08:55:44.917Z,3.00
2023-05-01T08:58:13.812Z,3.10
2023-05-01T09:00:41.266Z,2.85
2023-05-01T09:03:11.184Z,3.13
2023-05-01T09:05:38.461Z,2.88
2023-05-01T09:08:05.010Z,3.05
2023-05-01T09:10:33.572Z,3.22
2023-05-01T09:13:01.850Z,3.30
2023-05-01T09:15:29.756Z,2.70
2023-05-01T09:18:00.836Z,2.50
2023-05-01T09:20:29.790Z,2.35
2023-05-01T09:22:56.599Z,2.50
2023-05-01T09:25:23.275Z,2.42
2023-05-01T09:27:50.184Z,2.45
2023-05-01T09:30:36.549Z,2.20
2023-05-01T09:33:11.748Z,2.38
2023-05-01T09:38:27.621Z,2.38
2023-05-01T09:41:03.179Z,2.10
2023-05-01T09:43:30.392Z,2.05
2023-05-01T09:46:04.757Z,2.42
2023-05-01T09:48:34.843Z,2.30
2023-05-01T09:51:19.220Z,2.15
2023-05-01T09:53:45.744Z,2.58
2023-05-01T09:56:12.308Z,2.33
2023-05-01T09:58:39.220Z,2.00
2023-05-01T10:01:05.955Z,2.20
2023-05-01T10:03:34.634Z,2.50
2023-05-01T10:06:01.401Z,2.33
2023-05-01T10:08:47.030Z,2.53
2023-05-01T10:11:13.817Z,2.33
2023-05-01T10:13:40.434Z,2.28
2023-05-01T10:16:07.722Z,2.53
2023-05-01T10:18:35.470Z,2.30
2023-05-01T10:21:04.089Z,2.38
2023-05-01T10:23:31.025Z,2.45
2023-05-01T10:25:59.414Z,2.88
2023-05-01T10:28:27.107Z,2.55
2023-05-01T10:30:56.738Z,2.67
2023-05-01T10:33:24.594Z,2.50
2023-05-01T10:35:57.550Z,2.40
2023-05-01T10:38:31.304Z,2.70
2023-05-01T10:40:58.433Z,2.80
2023-05-01T10:43:29.921Z,3.08
2023-05-01T10:46:14.627Z,2.50
2023-05-01T10:48:41.151Z,2.83
2023-05-01T10:51:21.638Z,3.30
2023-05-01T10:53:50.149Z,3.50
2023-05-01T10:56:22.882Z,3.30
2023-05-01T10:59:00.133Z,3.08
2023-05-01T11:01:36.165Z,3.45
2023-05-01T11:04:26.067Z,3.30
2023-05-01T11:07:01.806Z,3.45
2023-05-01T11:09:42.709Z,3.70
2023-05-01T11:12:14.470Z,3.45
2023-05-01T11:14:56.201Z,3.88
2023-05-01T11:17:41.205Z,3.38
2023-05-01T11:20:09.120Z,3.95
2023-05-01T11:22:36.943Z,4.03
2023-05-01T11:25:17.103Z,3.65
2023-05-01T11:27:48.671Z,2.90
2023-05-01T11:30:15.759Z,3.65
2023-05-01T11:32:47.493Z,4.15
2023-05-01T11:35:23.680Z,4.07
2023-05-01T11:37:54.171Z,4.15
2023-05-01T11:40:27.907Z,4.65
2023-05-01T11:43:05.286Z,4.10
2023-05-01T11:45:32.960Z,4.20
2023-05-01T11:48:02.827Z,4.60
2023-05-01T11:50:34.485Z,5.25
2023-05-01T11:53:02.466Z,4.75
2023-05-01T11:55:33.243Z,4.68
2023-05-01T11:58:02.880Z,5.22
2023-05-01T12:00:30.492Z,5.22
2023-05-01T12:03:03.252Z,5.18
2023-05-01T12:05:32.262Z,5.65
2023-05-01T12:08:12.356Z,5.38
2023-05-01T12:10:43.659Z,5.40
2023-05-01T12:13:12.336Z,5.53
2023-05-01T12:15:42.299Z,5.20
2023-05-01T12:18:13.983Z,5.65
2023-05-01T12:20:49.872Z,5.35
2023-05-01T12:23:17.089Z,6.13
2023-05-01T12:25:45.297Z,5.47
2023-05-01T12:28:15.752Z,6.07
2023-05-01T12:30:43.738Z,5.50
2023-05-01T12:33:14.036Z,5.93
2023-05-01T12:35:41.747Z,5.13
2023-05-01T12:38:18.320Z,5.20
2023-05-01T12:40:57.668Z,6.05
2023-05-01T12:43:32.633Z,5.28
2023-05-01T12:46:00.023Z,5.28
2023-05-01T12:48:26.934Z,4.55
2023-05-01T12:50:53.908Z,4.30
2023-05-01T12:53:25.287Z,4.55
2023-05-01T12:55:59.538Z,4.88
2023-05-01T12:58:38.689Z,5.53
2023-05-01T13:01:05.767Z,5.13
2023-05-01T13:03:34.735Z,5.90
2023-05-01T13:06:03.978Z,5.28
2023-05-01T13:08:32.476Z,13.48
2023-05-01T13:11:01.576Z,4.80
2023-05-01T13:13:34.692Z,2.85
2023-05-01T13:16:11.996Z,2.30
2023-05-01T13:18:48.516Z,2.25
2023-05-01T13:21:21.492Z,1.85
2023-05-01T13:23:55.595Z,2.22
2023-05-01T13:26:27.551Z,2.83
2023-05-01T13:28:55.803Z,2.55
2023-05-01T13:31:22.844Z,3.00
2023-05-01T13:33:52.129Z,3.60
2023-05-01T13:36:26.154Z,2.80
2023-05-01T13:38:55.507Z,2.47
2023-05-01T13:41:26.462Z,3.15
2023-05-01T13:43:54.587Z,2.70
2023-05-01T13:46:25.335Z,2.90
2023-05-01T13:48:52.389Z,2.38
2023-05-01T13:51:25.147Z,1.90
2023-05-01T13:53:52.018Z,2.15
2023-05-01T13:56:18.924Z,5.18
2023-05-01T13:58:45.438Z,2.17
2023-05-01T14:01:17.254Z,3.13
2023-05-01T14:03:44.345Z,2.60
2023-05-01T14:06:13.926Z,3.05
2023-05-01T14:08:40.886Z,3.13
2023-05-01T14:11:08.605Z,2.33
2023-05-01T14:13:41.285Z,2.78
2023-05-01T14:16:09.258Z,3.20
2023-05-01T14:18:35.803Z,2.55
2023-05-01T14:21:02.441Z,3.28
2023-05-01T14:23:31.123Z,3.30
2023-05-01T14:25:57.685Z,3.10
2023-05-01T14:28:24.230Z,2.40
2023-05-01T14:30:50.768Z,3.20
2023-05-01T14:33:17.551Z,2.67
2023-05-01T14:35:49.383Z,3.05
2023-05-01T14:38:17.849Z,2.83
2023-05-01T14:40:45.541Z,2.33
2023-05-01T14:43:17.962Z,2.03
2023-05-01T14:45:45.764Z,2.38
2023-05-01T14:48:22.136Z,2.10
2023-05-01T14:50:49.125Z,1.92
2023-05-01T14:53:15.654Z,2.05
2023-05-01T14:55:42.437Z,2.00
2023-05-01T14:58:08.936Z,2.10
2023-05-01T15:00:35.410Z,2.00
2023-05-01T15:03:02.056Z,1.70
2023-05-01T15:05:28.626Z,1.67
2023-05-01T15:07:55.967Z,1.73
2023-05-01T15:10:22.957Z,2.20
2023-05-01T15:12:52.294Z,2.60
2023-05-01T15:15:18.949Z,3.05
2023-05-01T15:17:45.609Z,2.60
2023-05-01T15:20:12.253Z,2.70
2023-05-01T15:22:40.840Z,3.20
2023-05-01T15:25:08.926Z,4.63
2023-05-01T15:27:35.505Z,3.08
2023-05-01T15:30:02.096Z,3.60
2023-05-01T15:32:28.947Z,4.05
2023-05-01T15:34:55.581Z,4.00
2023-05-01T15:37:25.488Z,4.47
2023-05-01T15:39:52.073Z,4.00
2023-05-01T15:42:19.505Z,4.50
2023-05-01T15:44:46.770Z,4.50
2023-05-01T15:47:13.845Z,3.50
2023-05-01T15:49:40.537Z,2.40
2023-05-01T15:52:07.132Z,3.30
2023-05-01T15:54:33.777Z,6.03
2023-05-01T15:57:01.463Z,3.20
2023-05-01T15:59:28.003Z,3.70
2023-05-01T16:01:54.909Z,4.20
2023-05-01T16:04:21.953Z,5.03
2023-05-01T16:06:48.621Z,3.67
2023-05-01T16:09:15.229Z,2.83
2023-05-01T16:11:41.707Z,3.13
2023-05-01T16:14:09.622Z,3.17
2023-05-01T16:16:37.435Z,3.20
2023-05-01T16:19:03.955Z,3.15
2023-05-01T16:21:30.542Z,3.00
2023-05-01T16:23:57.121Z,3.03
2023-05-01T16:26:27.504Z,3.25
2023-05-01T16:29:05.577Z,3.25
2023-05-01T16:31:38.942Z,3.17
2023-05-01T16:34:06.772Z,3.28
2023-05-01T16:36:36.580Z,3.63
2023-05-01T16:39:03.901Z,3.15
2023-05-01T16:41:30.559Z,3.67
2023-05-01T16:43:59.953Z,3.58
2023-05-01T16:46:26.643Z,3.83
2023-05-01T16:48:53.269Z,4.78
2023-05-01T16:51:19.833Z,7.38
2023-05-01T16:53:46.382Z,6.85
2023-05-01T16:56:12.912Z,6.30
2023-05-01T16:58:39.393Z,6.68
2023-05-01T17:01:05.970Z,6.78
2023-05-01T17:03:32.550Z,7.28
2023-05-01T17:05:59.223Z,7.47
2023-05-01T17:08:25.869Z,6.95
2023-05-01T17:10:52.360Z,5.85
2023-05-01T17:13:19.330Z,5.93
2023-05-01T17:15:45.903Z,6.57
2023-05-01T17:18:12.605Z,7.90
2023-05-01T17:20:39.128Z,8.85
2023-05-01T17:23:05.632Z,12.20
2023-05-01T17:25:32.209Z,12.93
2023-05-01T17:27:58.740Z,13.70
2023-05-01T17:30:25.304Z,13.02
2023-05-01T17:32:52.719Z,14.60
2023-05-01T17:35:19.386Z,13.27
2023-05-01T17:37:45.894Z,12.20
2023-05-01T17:40:12.733Z,12.10
2023-05-01T17:42:39.466Z,12.40
2023-05-01T17:45:06.614Z,11.93
2023-05-01T17:47:36.932Z,11.70
2023-05-01T17:50:04.067Z,11.23
2023-05-01T17:52:30.687Z,11.70
2023-05-01T17:54:57.188Z,11.73
2023-05-01T17:57:23.677Z,11.57
2023-05-01T17:59:50.176Z,12.30
2023-05-01T18:02:16.795Z,12.40
2023-05-01T18:04:43.315Z,11.23
2023-05-01T18:07:09.780Z,12.05
2023-05-01T18:09:36.338Z,12.07
2023-05-01T18:12:02.884Z,11.40
2023-05-01T18:14:29.450Z,12.30
2023-05-01T18:16:56.104Z,12.82
2023-05-01T18:19:22.664Z,12.48
2023-05-01T18:21:49.171Z,12.68
2023-05-01T18:24:15.684Z,12.10
2023-05-01T18:26:42.218Z,12.15
2023-05-01T18:29:08.954Z,11.20
2023-05-01T18:31:35.541Z,11.50
2023-05-01T18:34:02.068Z,11.23
2023-05-01T18:36:30.972Z,12.93
2023-05-01T18:38:57.576Z,12.43
2023-05-01T18:41:24.122Z,11.93
2023-05-01T18:43:54.244Z,12.80
2023-05-01T18:46:22.205Z,12.15
2023-05-01T18:48:48.825Z,12.68
2023-05-01T18:51:15.315Z,13.27
2023-05-01T18:53:41.834Z,12.85
2023-05-01T18:56:08.303Z,13.15
2023-05-01T18:58:34.966Z,14.52
2023-05-01T19:01:01.545Z,14.30
2023-05-01T19:03:28.112Z,14.45
2023-05-01T19:05:54.617Z,14.80
2023-05-01T19:08:21.125Z,14.65
2023-05-01T19:10:47.596Z,14.02
2023-05-01T19:13:14.079Z,14.98
2023-05-01T19:15:40.741Z,14.50
2023-05-01T19:18:07.411Z,14.77
2023-05-01T19:20:33.988Z,14.20
2023-05-01T19:23:00.501Z,14.07
2023-05-01T19:25:27.063Z,14.63
2023-05-01T19:27:53.608Z,15.73
2023-05-01T19:30:20.149Z,16.60
2023-05-01T19:32:46.766Z,14.18
2023-05-01T19:35:13.501Z,15.02
2023-05-01T19:37:40.043Z,15.70
2023-05-01T19:40:07.358Z,16.63
2023-05-01T19:42:33.866Z,15.70
2023-05-01T19:45:00.393Z,16.17
2023-05-01T19:47:27.272Z,16.42
2023-05-01T19:49:53.838Z,17.25
2023-05-01T19:52:20.302Z,16.77
2023-05-01T19:54:46.836Z,17.17
2023-05-01T19:57:13.426Z,17.92
2023-05-01T19:59:39.897Z,15.82
2023-05-01T20:02:06.823Z,17.25
2023-05-01T20:04:33.531Z,17.58
2023-05-01T20:07:00.119Z,18.92
2023-05-01T20:09:26.588Z,16.95
2023-05-01T20:11:53.371Z,19.38
2023-05-01T20:14:19.897Z,17.65
2023-05-01T20:16:46.460Z,17.70
2023-05-01T20:19:13.562Z,17.75
2023-05-01T20:21:40.155Z,18.15
2023-05-01T20:24:06.631Z,18.50
2023-05-01T20:26:34.249Z,18.30
2023-05-01T20:29:00.742Z,19.30
2023-05-01T20:31:27.392Z,19.63
2023-05-01T20:33:53.927Z,18.75
2023-05-01T20:36:20.502Z,18.85
2023-05-01T20:38:47.011Z,20.35
2023-05-01T20:41:14.520Z,19.05
2023-05-01T20:43:41.056Z,18.85
2023-05-01T20:46:07.734Z,19.13
2023-05-01T20:48:34.398Z,19.05
2023-05-01T20:51:00.956Z,18.67
2023-05-01T20:53:27.490Z,18.35
2023-05-01T20:55:54.044Z,18.48
2023-05-01T20:58:20.562Z,17.77
2023-05-01T21:00:47.074Z,18.33
2023-05-01T21:03:13.695Z,17.85
2023-05-01T21:05:40.234Z,18.58
2023-05-01T21:08:06.848Z,17.15
2023-05-01T21:10:35.242Z,17.75
2023-05-01T21:13:01.750Z,15.65
2023-05-01T21:15:28.342Z,16.83
2023-05-01T21:17:54.931Z,17.48
2023-05-01T21:20:34.616Z,17.17
2023-05-01T21:23:01.384Z,18.08
2023-05-01T21:25:28.931Z,18.05
2023-05-01T21:27:55.815Z,19.50
2023-05-01T21:30:32.695Z,18.45
2023-05-01T21:33:04.522Z,19.65
2023-05-01T21:35:31.361Z,18.95
2023-05-01T21:37:58.737Z,20.20
2023-05-01T21:40:26.391Z,20.23
2023-05-01T21:42:56.367Z,19.27
2023-05-01T21:45:23.117Z,19.15
2023-05-01T21:47:50.714Z,18.90
2023-05-01T21:50:19.463Z,21.45
2023-05-01T21:52:47.761Z,21.17
2023-05-01T21:55:20.102Z,20.58
2023-05-01T21:57:46.953Z,21.00
2023-05-01T22:00:13.706Z,21.48
2023-05-01T22:02:42.638Z,20.15
2023-05-01T22:05:10.484Z,20.42
2023-05-01T22:07:41.212Z,21.65
2023-05-01T22:10:12.588Z,21.25
2023-05-01T22:12:39.900Z,20.80
2023-05-01T22:15:10.804Z,21.45
2023-05-01T22:17:38.097Z,21.88
2023-05-01T22:20:06.003Z,21.65
2023-05-01T22:22:35.924Z,22.55
2023-05-01T22:25:02.961Z,22.52
2023-05-01T22:27:29.905Z,23.45
2023-05-01T22:29:56.465Z,22.42
2023-05-01T22:32:23.121Z,23.73
2023-05-01T22:34:49.742Z,22.25
2023-05-01T22:37:16.322Z,24.92
2023-05-01T22:39:42.839Z,22.42
2023-05-01T22:42:09.432Z,23.65
2023-05-01T22:44:35.983Z,25.05
2023-05-01T22:47:02.542Z,25.90
2023-05-01T22:49:29.280Z,25.30
2023-05-01T22:51:56.079Z,24.05
2023-05-01T22:54:22.732Z,25.52
2023-05-01T22:56:49.250Z,23.10
2023-05-01T22:59:19.179Z,24.05
2023-05-01T23:04:13.569Z,23.52
2023-05-01T23:06:40.492Z,22.17
2023-05-01T23:09:07.232Z,22.80
2023-05-01T23:11:34.241Z,22.17
2023-05-01T23:14:01.010Z,21.85
2023-05-01T23:16:27.782Z,22.33
2023-05-01T23:18:55.950Z,23.45
2023-05-01T23:21:22.516Z,22.55
2023-05-01T23:23:49.073Z,22.02
2023-05-01T23:26:27.862Z,21.67
2023-05-01T23:28:54.612Z,22.17
2023-05-01T23:31:24.580Z,20.63
2023-05-01T23:33:51.597Z,22.13
2023-05-01T23:36:18.611Z,23.10
2023-05-01T23:38:45.802Z,22.85
2023-05-01T23:41:12.451Z,23.52
2023-05-01T23:43:39.318Z,24.05
2023-05-01T23:46:06.197Z,24.05
2023-05-01T23:48:34.060Z,22.95
2023-05-01T23:51:01.326Z,25.40
2023-05-01T23:53:27.965Z,24.58
2023-05-01T23:55:54.564Z,24.50
2023-05-01T23:58:21.282Z,23.65
